sensor_id;sensor_type;location;lat;lon;timestamp;pressure;altitude;pressure_sealevel;temperature;humidity
41862;BME280;27537;57.134;-2.136;2023-12-20T00:01:03;99757.47;;;5.97;100.00
41862;BME280;27537;57.134;-2.136;2023-12-20T00:03:30;99755.78;;;5.96;100.00
41862;BME280;27537;57.134;-2.136;2023-12-20T00:06:08;99750.97;;;5.83;100.00
41862;BME280;27537;57.134;-2.136;2023-12-20T00:08:35;99748.41;;;5.82;100.00
41862;BME280;27537;57.134;-2.136;2023-12-20T00:11:01;99728.31;;;5.62;100.00
41862;BME280;27537;57.134;-2.136;2023-12-20T00:13:28;99739.53;;;5.62;100.00
41862;BME280;27537;57.134;-2.136;2023-12-20T00:15:55;99736.91;;;5.64;100.00
41862;BME280;27537;57.134;-2.136;2023-12-20T00:18:22;99744.13;;;5.54;100.00
41862;BME280;27537;57.134;-2.136;2023-12-20T00:20:49;99748.16;;;5.63;100.00
41862;BME280;27537;57.134;-2.136;2023-12-20T00:23:15;99738.25;;;5.49;100.00
41862;BME280;27537;57.134;-2.136;2023-12-20T00:25:42;99749.50;;;5.49;100.00
41862;BME280;27537;57.134;-2.136;2023-12-20T00:28:09;99732.25;;;5.47;100.00
41862;BME280;27537;57.134;-2.136;2023-12-20T00:30:36;99741.25;;;5.37;100.00
41862;BME280;27537;57.134;-2.136;2023-12-20T00:33:03;99737.66;;;5.41;100.00
41862;BME280;27537;57.134;-2.136;2023-12-20T00:35:30;99746.78;;;5.53;100.00
41862;BME280;27537;57.134;-2.136;2023-12-20T00:37:57;99747.53;;;5.56;100.00
41862;BME280;27537;57.134;-2.136;2023-12-20T00:40:24;99761.50;;;5.79;100.00
41862;BME280;27537;57.134;-2.136;2023-12-20T00:42:51;99750.31;;;5.77;100.00
41862;BME280;27537;57.134;-2.136;2023-12-20T00:45:18;99756.31;;;5.79;100.00
41862;BME280;27537;57.134;-2.136;2023-12-20T00:47:45;99768.09;;;5.62;100.00
41862;BME280;27537;57.134;-2.136;2023-12-20T00:50:12;99757.72;;;5.62;100.00
41862;BME280;27537;57.134;-2.136;2023-12-20T00:52:39;99781.84;;;5.66;100.00
41862;BME280;27537;57.134;-2.136;2023-12-20T00:55:06;99797.38;;;5.67;100.00
41862;BME280;27537;57.134;-2.136;2023-12-20T00:57:33;99792.47;;;5.58;100.00
41862;BME280;27537;57.134;-2.136;2023-12-20T01:00:00;99813.31;;;5.57;100.00
41862;BME280;27537;57.134;-2.136;2023-12-20T01:02:27;99809.66;;;5.62;100.00
41862;BME280;27537;57.134;-2.136;2023-12-20T01:04:53;99819.19;;;5.62;100.00
41862;BME280;27537;57.134;-2.136;2023-12-20T01:07:20;99821.28;;;5.50;100.00
41862;BME280;27537;57.134;-2.136;2023-12-20T01:09:47;99793.25;;;5.33;100.00
41862;BME280;27537;57.134;-2.136;2023-12-20T01:12:14;99816.91;;;5.53;100.00
41862;BME280;27537;57.134;-2.136;2023-12-20T01:14:41;99810.34;;;5.41;100.00
41862;BME280;27537;57.134;-2.136;2023-12-20T01:17:07;99814.78;;;5.37;100.00
41862;BME280;27537;57.134;-2.136;2023-12-20T01:19:34;99808.97;;;5.29;100.00
41862;BME280;27537;57.134;-2.136;2023-12-20T01:22:01;99822.31;;;5.17;100.00
41862;BME280;27537;57.134;-2.136;2023-12-20T01:24:28;99813.81;;;5.40;100.00
41862;BME280;27537;57.134;-2.136;2023-12-20T01:26:54;99812.03;;;5.42;100.00
41862;BME280;27537;57.134;-2.136;2023-12-20T01:29:21;99823.31;;;5.12;100.00
41862;BME280;27537;57.134;-2.136;2023-12-20T01:31:48;99790.63;;;5.07;100.00
41862;BME280;27537;57.134;-2.136;2023-12-20T01:34:15;99821.34;;;5.21;100.00
41862;BME280;27537;57.134;-2.136;2023-12-20T01:36:42;99824.31;;;5.37;100.00
41862;BME280;27537;57.134;-2.136;2023-12-20T01:39:09;99815.19;;;5.23;100.00
41862;BME280;27537;57.134;-2.136;2023-12-20T01:41:50;99814.34;;;5.23;100.00
41862;BME280;27537;57.134;-2.136;2023-12-20T01:44:17;99829.53;;;5.07;100.00
41862;BME280;27537;57.134;-2.136;2023-12-20T01:46:44;99831.69;;;4.92;100.00
41862;BME280;27537;57.134;-2.136;2023-12-20T01:49:11;99821.38;;;4.89;100.00
41862;BME280;27537;57.134;-2.136;2023-12-20T01:51:38;99808.38;;;4.91;100.00
41862;BME280;27537;57.134;-2.136;2023-12-20T01:54:05;99827.13;;;4.99;100.00
41862;BME280;27537;57.134;-2.136;2023-12-20T01:56:33;99821.06;;;5.00;100.00
41862;BME280;27537;57.134;-2.136;2023-12-20T01:59:00;99825.31;;;4.73;100.00
41862;BME280;27537;57.134;-2.136;2023-12-20T02:01:27;99830.34;;;4.78;100.00
41862;BME280;27537;57.134;-2.136;2023-12-20T02:03:55;99824.28;;;4.79;100.00
41862;BME280;27537;57.134;-2.136;2023-12-20T02:06:23;99829.84;;;4.96;100.00
41862;BME280;27537;57.134;-2.136;2023-12-20T02:08:51;99832.44;;;4.96;100.00
41862;BME280;27537;57.134;-2.136;2023-12-20T02:11:17;99837.63;;;4.96;100.00
41862;BME280;27537;57.134;-2.136;2023-12-20T02:13:44;99828.88;;;4.69;100.00
41862;BME280;27537;57.134;-2.136;2023-12-20T02:16:11;99830.25;;;4.82;100.00
41862;BME280;27537;57.134;-2.136;2023-12-20T02:18:39;99854.69;;;5.05;100.00
41862;BME280;27537;57.134;-2.136;2023-12-20T02:21:05;99860.75;;;5.04;100.00
41862;BME280;27537;57.134;-2.136;2023-12-20T02:23:32;99861.38;;;5.12;100.00
41862;BME280;27537;57.134;-2.136;2023-12-20T02:25:59;99862.19;;;5.14;100.00
41862;BME280;27537;57.134;-2.136;2023-12-20T02:28:26;99879.91;;;5.29;100.00
41862;BME280;27537;57.134;-2.136;2023-12-20T02:30:53;99867.78;;;5.30;100.00
41862;BME280;27537;57.134;-2.136;2023-12-20T02:33:20;99878.00;;;5.35;100.00
41862;BME280;27537;57.134;-2.136;2023-12-20T02:35:46;99872.94;;;5.31;100.00
41862;BME280;27537;57.134;-2.136;2023-12-20T02:38:14;99884.19;;;5.30;100.00
41862;BME280;27537;57.134;-2.136;2023-12-20T02:40:40;99888.25;;;5.39;100.00
41862;BME280;27537;57.134;-2.136;2023-12-20T02:43:15;99894.25;;;5.41;100.00
41862;BME280;27537;57.134;-2.136;2023-12-20T02:45:42;99912.38;;;5.13;100.00
41862;BME280;27537;57.134;-2.136;2023-12-20T02:48:09;99891.03;;;5.03;100.00
41862;BME280;27537;57.134;-2.136;2023-12-20T02:50:35;99875.09;;;5.17;100.00
41862;BME280;27537;57.134;-2.136;2023-12-20T02:53:02;99893.00;;;5.25;100.00
41862;BME280;27537;57.134;-2.136;2023-12-20T02:55:29;99883.56;;;5.22;100.00
41862;BME280;27537;57.134;-2.136;2023-12-20T02:57:55;99894.13;;;5.16;100.00
41862;BME280;27537;57.134;-2.136;2023-12-20T03:00:23;99902.28;;;5.33;100.00
41862;BME280;27537;57.134;-2.136;2023-12-20T03:02:50;99905.78;;;5.31;100.00
41862;BME280;27537;57.134;-2.136;2023-12-20T03:05:17;99926.75;;;5.25;100.00
41862;BME280;27537;57.134;-2.136;2023-12-20T03:07:43;99929.59;;;5.17;100.00
41862;BME280;27537;57.134;-2.136;2023-12-20T03:10:11;99919.19;;;5.17;100.00
41862;BME280;27537;57.134;-2.136;2023-12-20T03:12:49;99885.31;;;4.59;100.00
41862;BME280;27537;57.134;-2.136;2023-12-20T03:15:16;99900.81;;;4.93;100.00
41862;BME280;27537;57.134;-2.136;2023-12-20T03:17:43;99902.81;;;4.84;100.00
41862;BME280;27537;57.134;-2.136;2023-12-20T03:20:11;99888.50;;;5.02;100.00
41862;BME280;27537;57.134;-2.136;2023-12-20T03:22:37;99882.66;;;4.93;100.00
41862;BME280;27537;57.134;-2.136;2023-12-20T03:25:04;99901.53;;;4.99;100.00
41862;BME280;27537;57.134;-2.136;2023-12-20T03:27:31;99884.06;;;5.05;100.00
41862;BME280;27537;57.134;-2.136;2023-12-20T03:29:57;99892.47;;;5.13;100.00
41862;BME280;27537;57.134;-2.136;2023-12-20T03:32:24;99901.41;;;5.03;100.00
41862;BME280;27537;57.134;-2.136;2023-12-20T03:34:51;99882.16;;;4.81;100.00
41862;BME280;27537;57.134;-2.136;2023-12-20T03:37:18;99892.66;;;5.07;100.00
41862;BME280;27537;57.134;-2.136;2023-12-20T03:39:44;99901.72;;;4.92;100.00
41862;BME280;27537;57.134;-2.136;2023-12-20T03:42:11;99898.97;;;4.97;100.00
41862;BME280;27537;57.134;-2.136;2023-12-20T03:44:39;99920.88;;;5.18;100.00
41862;BME280;27537;57.134;-2.136;2023-12-20T03:47:09;99893.22;;;4.87;100.00
41862;BME280;27537;57.134;-2.136;2023-12-20T03:49:35;99916.31;;;4.97;100.00
41862;BME280;27537;57.134;-2.136;2023-12-20T03:52:04;99925.03;;;5.24;100.00
41862;BME280;27537;57.134;-2.136;2023-12-20T03:54:31;99905.22;;;5.21;100.00
41862;BME280;27537;57.134;-2.136;2023-12-20T03:56:58;99905.75;;;5.32;100.00
41862;BME280;27537;57.134;-2.136;2023-12-20T03:59:24;99897.31;;;5.26;100.00
41862;BME280;27537;57.134;-2.136;2023-12-20T04:01:51;99899.00;;;5.27;100.00
41862;BME280;27537;57.134;-2.136;2023-12-20T04:04:18;99894.78;;;5.24;100.00
41862;BME280;27537;57.134;-2.136;2023-12-20T04:06:45;99903.63;;;4.86;100.00
41862;BME280;27537;57.134;-2.136;2023-12-20T04:09:12;99890.63;;;4.87;100.00
41862;BME280;27537;57.134;-2.136;2023-12-20T04:11:39;99880.50;;;5.08;100.00
41862;BME280;27537;57.134;-2.136;2023-12-20T04:14:06;99885.81;;;5.05;100.00
41862;BME280;27537;57.134;-2.136;2023-12-20T04:16:34;99879.09;;;4.98;100.00
41862;BME280;27537;57.134;-2.136;2023-12-20T04:19:01;99883.25;;;5.03;100.00
41862;BME280;27537;57.134;-2.136;2023-12-20T04:21:28;99894.88;;;5.20;100.00
41862;BME280;27537;57.134;-2.136;2023-12-20T04:23:54;99902.91;;;5.12;100.00
41862;BME280;27537;57.134;-2.136;2023-12-20T04:26:21;99886.69;;;5.04;100.00
41862;BME280;27537;57.134;-2.136;2023-12-20T04:28:48;99882.53;;;4.98;100.00
41862;BME280;27537;57.134;-2.136;2023-12-20T04:31:17;99890.78;;;5.12;100.00
41862;BME280;27537;57.134;-2.136;2023-12-20T04:33:43;99892.22;;;5.23;100.00
41862;BME280;27537;57.134;-2.136;2023-12-20T04:36:10;99896.31;;;5.30;100.00
41862;BME280;27537;57.134;-2.136;2023-12-20T04:38:37;99893.00;;;5.25;100.00
41862;BME280;27537;57.134;-2.136;2023-12-20T04:41:03;99891.81;;;5.07;100.00
41862;BME280;27537;57.134;-2.136;2023-12-20T04:43:30;99899.00;;;5.27;100.00
41862;BME280;27537;57.134;-2.136;2023-12-20T04:45:56;99867.63;;;5.35;100.00
41862;BME280;27537;57.134;-2.136;2023-12-20T04:48:23;99885.88;;;5.33;100.00
41862;BME280;27537;57.134;-2.136;2023-12-20T04:50:50;99885.28;;;5.23;100.00
41862;BME280;27537;57.134;-2.136;2023-12-20T04:53:17;99877.56;;;5.50;100.00
41862;BME280;27537;57.134;-2.136;2023-12-20T04:55:43;99873.28;;;5.49;100.00
41862;BME280;27537;57.134;-2.136;2023-12-20T04:58:10;99894.03;;;5.49;100.00
41862;BME280;27537;57.134;-2.136;2023-12-20T05:00:36;99876.75;;;5.48;100.00
41862;BME280;27537;57.134;-2.136;2023-12-20T05:03:04;99878.19;;;5.58;100.00
41862;BME280;27537;57.134;-2.136;2023-12-20T05:05:30;99879.16;;;5.54;100.00
41862;BME280;27537;57.134;-2.136;2023-12-20T05:07:58;99870.53;;;5.24;100.00
41862;BME280;27537;57.134;-2.136;2023-12-20T05:10:25;99853.69;;;5.39;100.00
41862;BME280;27537;57.134;-2.136;2023-12-20T05:12:53;99855.41;;;5.38;100.00
41862;BME280;27537;57.134;-2.136;2023-12-20T05:15:20;99856.28;;;5.39;100.00
41862;BME280;27537;57.134;-2.136;2023-12-20T05:17:46;99868.84;;;5.53;100.00
41862;BME280;27537;57.134;-2.136;2023-12-20T05:20:14;99866.31;;;5.49;100.00
41862;BME280;27537;57.134;-2.136;2023-12-20T05:22:41;99878.09;;;5.61;100.00
41862;BME280;27537;57.134;-2.136;2023-12-20T05:25:07;99876.28;;;5.63;100.00
41862;BME280;27537;57.134;-2.136;2023-12-20T05:27:34;99872.81;;;5.63;100.00
41862;BME280;27537;57.134;-2.136;2023-12-20T05:30:01;99873.75;;;5.62;100.00
41862;BME280;27537;57.134;-2.136;2023-12-20T05:32:27;99874.81;;;5.55;100.00
41862;BME280;27537;57.134;-2.136;2023-12-20T05:34:54;99882.69;;;5.51;100.00
41862;BME280;27537;57.134;-2.136;2023-12-20T05:37:21;99876.13;;;5.40;100.00
41862;BME280;27537;57.134;-2.136;2023-12-20T05:39:48;99869.13;;;5.42;100.00
41862;BME280;27537;57.134;-2.136;2023-12-20T05:42:14;99865.22;;;5.28;100.00
41862;BME280;27537;57.134;-2.136;2023-12-20T05:44:41;99871.25;;;5.29;100.00
41862;BME280;27537;57.134;-2.136;2023-12-20T05:47:07;99873.97;;;5.26;100.00
41862;BME280;27537;57.134;-2.136;2023-12-20T05:49:34;99865.47;;;5.21;100.00
41862;BME280;27537;57.134;-2.136;2023-12-20T05:52:01;99846.69;;;5.11;100.00
41862;BME280;27537;57.134;-2.136;2023-12-20T05:54:28;99857.16;;;5.08;100.00
41862;BME280;27537;57.134;-2.136;2023-12-20T05:56:54;99858.06;;;5.07;100.00
41862;BME280;27537;57.134;-2.136;2023-12-20T05:59:21;99848.09;;;4.93;100.00
41862;BME280;27537;57.134;-2.136;2023-12-20T06:01:48;99845.66;;;4.87;100.00
41862;BME280;27537;57.134;-2.136;2023-12-20T06:04:14;99845.13;;;5.05;100.00
41862;BME280;27537;57.134;-2.136;2023-12-20T06:06:42;99831.56;;;4.95;100.00
41862;BME280;27537;57.134;-2.136;2023-12-20T06:09:10;99821.91;;;5.01;100.00
41862;BME280;27537;57.134;-2.136;2023-12-20T06:11:37;99827.91;;;5.03;100.00
41862;BME280;27537;57.134;-2.136;2023-12-20T06:14:04;99840.63;;;5.12;100.00
41862;BME280;27537;57.134;-2.136;2023-12-20T06:16:31;99838.56;;;5.23;100.00
41862;BME280;27537;57.134;-2.136;2023-12-20T06:18:58;99849.81;;;5.22;100.00
41862;BME280;27537;57.134;-2.136;2023-12-20T06:21:24;99838.31;;;5.31;100.00
41862;BME280;27537;57.134;-2.136;2023-12-20T06:23:51;99841.03;;;5.28;100.00
41862;BME280;27537;57.134;-2.136;2023-12-20T06:26:18;99838.13;;;5.37;100.00
41862;BME280;27537;57.134;-2.136;2023-12-20T06:28:44;99826.25;;;5.30;100.00
41862;BME280;27537;57.134;-2.136;2023-12-20T06:31:11;99830.47;;;5.32;100.00
41862;BME280;27537;57.134;-2.136;2023-12-20T06:33:38;99820.13;;;5.31;100.00
41862;BME280;27537;57.134;-2.136;2023-12-20T06:36:07;99792.63;;;5.25;100.00
41862;BME280;27537;57.134;-2.136;2023-12-20T06:38:37;99804.56;;;5.31;100.00
41862;BME280;27537;57.134;-2.136;2023-12-20T06:41:03;99820.09;;;5.32;100.00
41862;BME280;27537;57.134;-2.136;2023-12-20T06:43:30;99824.94;;;5.15;100.00
41862;BME280;27537;57.134;-2.136;2023-12-20T06:46:14;99820.31;;;5.26;100.00
41862;BME280;27537;57.134;-2.136;2023-12-20T06:48:41;99809.91;;;5.26;100.00
41862;BME280;27537;57.134;-2.136;2023-12-20T06:51:12;99779.00;;;5.19;100.00
41862;BME280;27537;57.134;-2.136;2023-12-20T06:53:38;99799.38;;;5.31;100.00
41862;BME280;27537;57.134;-2.136;2023-12-20T06:56:05;99791.38;;;5.39;100.00
41862;BME280;27537;57.134;-2.136;2023-12-20T06:58:32;99807.06;;;5.34;100.00
41862;BME280;27537;57.134;-2.136;2023-12-20T07:00:59;99799.66;;;5.22;100.00
41862;BME280;27537;57.134;-2.136;2023-12-20T07:03:25;99796.19;;;5.23;100.00
41862;BME280;27537;57.134;-2.136;2023-12-20T07:05:52;99804.63;;;5.29;100.00
41862;BME280;27537;57.134;-2.136;2023-12-20T07:08:19;99818.22;;;5.38;100.00
41862;BME280;27537;57.134;-2.136;2023-12-20T07:10:45;99807.44;;;5.50;100.00
41862;BME280;27537;57.134;-2.136;2023-12-20T07:13:13;99813.69;;;5.44;100.00
41862;BME280;27537;57.134;-2.136;2023-12-20T07:15:40;99811.41;;;5.62;100.00
41862;BME280;27537;57.134;-2.136;2023-12-20T07:18:06;99825.69;;;5.75;100.00
41862;BME280;27537;57.134;-2.136;2023-12-20T07:20:33;99820.44;;;5.77;100.00
41862;BME280;27537;57.134;-2.136;2023-12-20T07:23:00;99814.75;;;5.65;100.00
41862;BME280;27537;57.134;-2.136;2023-12-20T07:25:27;99813.63;;;5.74;100.00
41862;BME280;27537;57.134;-2.136;2023-12-20T07:27:54;99803.28;;;5.73;100.00
41862;BME280;27537;57.134;-2.136;2023-12-20T07:30:21;99808.47;;;5.73;100.00
41862;BME280;27537;57.134;-2.136;2023-12-20T07:32:47;99804.91;;;5.75;100.00
41862;BME280;27537;57.134;-2.136;2023-12-20T07:35:15;99807.50;;;5.75;100.00
41862;BME280;27537;57.134;-2.136;2023-12-20T07:37:42;99811.81;;;5.76;100.00
41862;BME280;27537;57.134;-2.136;2023-12-20T07:40:10;99824.53;;;5.84;100.00
41862;BME280;27537;57.134;-2.136;2023-12-20T07:42:37;99816.03;;;5.79;100.00
41862;BME280;27537;57.134;-2.136;2023-12-20T07:45:04;99820.34;;;5.80;100.00
41862;BME280;27537;57.134;-2.136;2023-12-20T07:47:31;99819.59;;;5.76;100.00
41862;BME280;27537;57.134;-2.136;2023-12-20T07:49:58;99817.81;;;5.78;100.00
41862;BME280;27537;57.134;-2.136;2023-12-20T07:52:26;99809.97;;;5.80;100.00
41862;BME280;27537;57.134;-2.136;2023-12-20T07:54:52;99809.13;;;5.79;100.00
41862;BME280;27537;57.134;-2.136;2023-12-20T07:57:19;99814.16;;;5.84;100.00
41862;BME280;27537;57.134;-2.136;2023-12-20T07:59:46;99795.47;;;5.73;100.00
41862;BME280;27537;57.134;-2.136;2023-12-20T08:02:13;99774.44;;;5.80;100.00
41862;BME280;27537;57.134;-2.136;2023-12-20T08:04:40;99780.34;;;5.85;100.00
41862;BME280;27537;57.134;-2.136;2023-12-20T08:07:07;99776.25;;;5.78;100.00
41862;BME280;27537;57.134;-2.136;2023-12-20T08:09:34;99781.38;;;5.80;100.00
41862;BME280;27537;57.134;-2.136;2023-12-20T08:12:03;99777.78;;;5.84;100.00
41862;BME280;27537;57.134;-2.136;2023-12-20T08:14:30;99783.03;;;5.82;100.00
41862;BME280;27537;57.134;-2.136;2023-12-20T08:16:57;99781.13;;;5.87;100.00
41862;BME280;27537;57.134;-2.136;2023-12-20T08:19:24;99783.69;;;5.89;100.00
41862;BME280;27537;57.134;-2.136;2023-12-20T08:21:51;99778.47;;;5.89;100.00
41862;BME280;27537;57.134;-2.136;2023-12-20T08:24:18;99761.22;;;5.88;100.00
41862;BME280;27537;57.134;-2.136;2023-12-20T08:26:44;99771.66;;;5.86;100.00
41862;BME280;27537;57.134;-2.136;2023-12-20T08:29:13;99763.25;;;6.05;100.00
41862;BME280;27537;57.134;-2.136;2023-12-20T08:31:40;99756.91;;;5.87;100.00
41862;BME280;27537;57.134;-2.136;2023-12-20T08:34:06;99754.88;;;5.97;100.00
41862;BME280;27537;57.134;-2.136;2023-12-20T08:36:34;99758.75;;;6.10;100.00
41862;BME280;27537;57.134;-2.136;2023-12-20T08:39:01;99766.63;;;6.07;100.00
41862;BME280;27537;57.134;-2.136;2023-12-20T08:41:30;99763.44;;;6.00;100.00
41862;BME280;27537;57.134;-2.136;2023-12-20T08:43:56;99760.41;;;6.13;100.00
41862;BME280;27537;57.134;-2.136;2023-12-20T08:46:23;99749.00;;;6.17;100.00
41862;BME280;27537;57.134;-2.136;2023-12-20T08:48:50;99751.34;;;6.23;100.00
41862;BME280;27537;57.134;-2.136;2023-12-20T08:51:17;99766.19;;;6.44;100.00
41862;BME280;27537;57.134;-2.136;2023-12-20T08:53:43;99765.59;;;6.38;100.00
41862;BME280;27537;57.134;-2.136;2023-12-20T08:56:12;99760.38;;;6.38;100.00
41862;BME280;27537;57.134;-2.136;2023-12-20T08:58:38;99751.66;;;6.39;100.00
41862;BME280;27537;57.134;-2.136;2023-12-20T09:01:05;99764.25;;;6.50;100.00
41862;BME280;27537;57.134;-2.136;2023-12-20T09:03:32;99739.28;;;6.45;100.00
41862;BME280;27537;57.134;-2.136;2023-12-20T09:05:59;99741.72;;;6.50;100.00
41862;BME280;27537;57.134;-2.136;2023-12-20T09:08:25;99731.28;;;6.52;100.00
41862;BME280;27537;57.134;-2.136;2023-12-20T09:10:52;99721.09;;;6.45;100.00
41862;BME280;27537;57.134;-2.136;2023-12-20T09:13:19;99719.00;;;6.55;100.00
41862;BME280;27537;57.134;-2.136;2023-12-20T09:15:45;99715.59;;;6.53;100.00
41862;BME280;27537;57.134;-2.136;2023-12-20T09:18:12;99705.47;;;6.45;100.00
41862;BME280;27537;57.134;-2.136;2023-12-20T09:20:39;99699.09;;;6.54;100.00
41862;BME280;27537;57.134;-2.136;2023-12-20T09:23:09;99694.97;;;6.49;100.00
41862;BME280;27537;57.134;-2.136;2023-12-20T09:25:36;99700.91;;;6.52;100.00
41862;BME280;27537;57.134;-2.136;2023-12-20T09:28:03;99694.00;;;6.51;100.00
41862;BME280;27537;57.134;-2.136;2023-12-20T09:30:30;99671.56;;;6.49;100.00
41862;BME280;27537;57.134;-2.136;2023-12-20T09:32:56;99662.00;;;6.49;100.00
41862;BME280;27537;57.134;-2.136;2023-12-20T09:35:23;99666.13;;;6.55;100.00
41862;BME280;27537;57.134;-2.136;2023-12-20T09:37:50;99661.16;;;6.49;100.00
41862;BME280;27537;57.134;-2.136;2023-12-20T09:40:20;99651.63;;;6.25;100.00
41862;BME280;27537;57.134;-2.136;2023-12-20T09:42:58;99652.31;;;6.31;100.00
41862;BME280;27537;57.134;-2.136;2023-12-20T09:45:30;99653.53;;;6.44;100.00
41862;BME280;27537;57.134;-2.136;2023-12-20T09:47:58;99634.06;;;6.32;100.00
41862;BME280;27537;57.134;-2.136;2023-12-20T09:50:25;99620.09;;;6.35;100.00
41862;BME280;27537;57.134;-2.136;2023-12-20T09:52:53;99616.69;;;6.33;100.00
41862;BME280;27537;57.134;-2.136;2023-12-20T09:55:21;99622.63;;;6.36;100.00
41862;BME280;27537;57.134;-2.136;2023-12-20T09:57:49;99638.91;;;6.41;100.00
41862;BME280;27537;57.134;-2.136;2023-12-20T10:00:16;99637.44;;;6.34;100.00
41862;BME280;27537;57.134;-2.136;2023-12-20T10:02:59;99635.69;;;6.35;100.00
41862;BME280;27537;57.134;-2.136;2023-12-20T10:05:27;99623.38;;;6.40;100.00
41862;BME280;27537;57.134;-2.136;2023-12-20T10:07:55;99622.53;;;6.39;100.00
41862;BME280;27537;57.134;-2.136;2023-12-20T10:10:22;99620.25;;;6.30;100.00
41862;BME280;27537;57.134;-2.136;2023-12-20T10:13:06;99621.06;;;6.32;100.00
41862;BME280;27537;57.134;-2.136;2023-12-20T10:15:34;99623.88;;;6.26;100.00
41862;BME280;27537;57.134;-2.136;2023-12-20T10:18:02;99609.94;;;6.29;100.00
41862;BME280;27537;57.134;-2.136;2023-12-20T10:20:30;99615.56;;;6.40;100.00
41862;BME280;27537;57.134;-2.136;2023-12-20T10:23:00;99625.41;;;6.32;100.00
41862;BME280;27537;57.134;-2.136;2023-12-20T10:25:28;99615.91;;;6.31;100.00
41862;BME280;27537;57.134;-2.136;2023-12-20T10:28:11;99599.41;;;6.32;100.00
41862;BME280;27537;57.134;-2.136;2023-12-20T10:30:39;99591.78;;;6.27;100.00
41862;BME280;27537;57.134;-2.136;2023-12-20T10:33:07;99581.06;;;6.13;100.00
41862;BME280;27537;57.134;-2.136;2023-12-20T10:35:35;99576.34;;;6.00;100.00
41862;BME280;27537;57.134;-2.136;2023-12-20T10:38:06;99561.75;;;5.95;100.00
41862;BME280;27537;57.134;-2.136;2023-12-20T10:40:36;99560.00;;;5.97;100.00
41862;BME280;27537;57.134;-2.136;2023-12-20T10:43:05;99572.91;;;5.98;100.00
41862;BME280;27537;57.134;-2.136;2023-12-20T10:45:32;99558.88;;;6.04;100.00
41862;BME280;27537;57.134;-2.136;2023-12-20T10:47:59;99560.56;;;6.05;100.00
41862;BME280;27537;57.134;-2.136;2023-12-20T10:50:28;99531.34;;;5.98;100.00
41862;BME280;27537;57.134;-2.136;2023-12-20T10:52:57;99526.81;;;6.03;100.00
41862;BME280;27537;57.134;-2.136;2023-12-20T10:55:25;99530.22;;;6.05;100.00
41862;BME280;27537;57.134;-2.136;2023-12-20T10:57:54;99532.69;;;6.08;100.00
41862;BME280;27537;57.134;-2.136;2023-12-20T11:00:24;99519.97;;;6.02;100.00
41862;BME280;27537;57.134;-2.136;2023-12-20T11:02:51;99507.81;;;5.79;100.00
41862;BME280;27537;57.134;-2.136;2023-12-20T11:05:28;99516.31;;;6.06;100.00
41862;BME280;27537;57.134;-2.136;2023-12-20T11:08:20;99504.63;;;6.18;100.00
41862;BME280;27537;57.134;-2.136;2023-12-20T11:10:51;99495.00;;;6.20;100.00
41862;BME280;27537;57.134;-2.136;2023-12-20T11:13:42;99481.69;;;6.28;100.00
41862;BME280;27537;57.134;-2.136;2023-12-20T11:16:11;99478.25;;;6.27;100.00
41862;BME280;27537;57.134;-2.136;2023-12-20T11:18:40;99487.09;;;6.23;100.00
41862;BME280;27537;57.134;-2.136;2023-12-20T11:21:07;99475.16;;;6.18;100.00
41862;BME280;27537;57.134;-2.136;2023-12-20T11:23:34;99476.59;;;6.25;100.00
41862;BME280;27537;57.134;-2.136;2023-12-20T11:26:02;99466.88;;;6.30;100.00
41862;BME280;27537;57.134;-2.136;2023-12-20T11:28:29;99449.53;;;6.31;100.00
41862;BME280;27537;57.134;-2.136;2023-12-20T11:31:01;99449.59;;;6.29;100.00
41862;BME280;27537;57.134;-2.136;2023-12-20T11:33:36;99410.91;;;6.21;100.00
41862;BME280;27537;57.134;-2.136;2023-12-20T11:36:12;99414.22;;;6.25;100.00
41862;BME280;27537;57.134;-2.136;2023-12-20T11:38:54;99412.28;;;6.30;100.00
41862;BME280;27537;57.134;-2.136;2023-12-20T11:41:25;99399.22;;;6.32;100.00
41862;BME280;27537;57.134;-2.136;2023-12-20T11:43:53;99388.66;;;6.36;100.00
41862;BME280;27537;57.134;-2.136;2023-12-20T11:46:20;99389.31;;;6.41;100.00
41862;BME280;27537;57.134;-2.136;2023-12-20T11:48:48;99375.78;;;6.33;100.00
41862;BME280;27537;57.134;-2.136;2023-12-20T11:51:15;99373.56;;;6.44;100.00
41862;BME280;27537;57.134;-2.136;2023-12-20T11:53:41;99370.44;;;6.57;100.00
41862;BME280;27537;57.134;-2.136;2023-12-20T11:56:09;99364.13;;;6.62;100.00
41862;BME280;27537;57.134;-2.136;2023-12-20T11:58:36;99359.06;;;6.59;100.00
41862;BME280;27537;57.134;-2.136;2023-12-20T12:01:04;99348.00;;;6.54;100.00
41862;BME280;27537;57.134;-2.136;2023-12-20T12:03:34;99346.84;;;6.61;100.00
41862;BME280;27537;57.134;-2.136;2023-12-20T12:06:01;99335.00;;;6.54;100.00
41862;BME280;27537;57.134;-2.136;2023-12-20T12:08:31;99328.19;;;6.52;100.00
41862;BME280;27537;57.134;-2.136;2023-12-20T12:10:58;99337.94;;;6.46;100.00
41862;BME280;27537;57.134;-2.136;2023-12-20T12:13:25;99331.09;;;6.44;100.00
41862;BME280;27537;57.134;-2.136;2023-12-20T12:15:54;99310.25;;;6.45;100.00
41862;BME280;27537;57.134;-2.136;2023-12-20T12:18:21;99327.28;;;6.53;100.00
41862;BME280;27537;57.134;-2.136;2023-12-20T12:20:48;99310.72;;;6.55;100.00
41862;BME280;27537;57.134;-2.136;2023-12-20T12:23:22;99297.84;;;6.52;100.00
41862;BME280;27537;57.134;-2.136;2023-12-20T12:25:50;99291.69;;;6.53;100.00
41862;BME280;27537;57.134;-2.136;2023-12-20T12:28:16;99285.47;;;6.57;100.00
41862;BME280;27537;57.134;-2.136;2023-12-20T12:30:56;99283.78;;;6.56;100.00
41862;BME280;27537;57.134;-2.136;2023-12-20T12:33:24;99281.03;;;6.59;100.00
41862;BME280;27537;57.134;-2.136;2023-12-20T12:35:52;99266.34;;;6.58;100.00
41862;BME280;27537;57.134;-2.136;2023-12-20T12:38:22;99263.03;;;6.55;100.00
41862;BME280;27537;57.134;-2.136;2023-12-20T12:40:50;99252.56;;;6.56;100.00
41862;BME280;27537;57.134;-2.136;2023-12-20T12:43:20;99252.16;;;6.65;100.00
41862;BME280;27537;57.134;-2.136;2023-12-20T12:45:46;99242.69;;;6.64;100.00
41862;BME280;27537;57.134;-2.136;2023-12-20T12:48:13;99244.50;;;6.62;100.00
41862;BME280;27537;57.134;-2.136;2023-12-20T12:50:40;99232.97;;;6.68;100.00
41862;BME280;27537;57.134;-2.136;2023-12-20T12:53:07;99231.72;;;6.77;100.00